createdAt,value
2023-02-03T00:00:08.926Z,101288.80
2023-02-03T00:02:59.745Z,101291.95
2023-02-03T00:05:28.333Z,101284.69
2023-02-03T00:07:56.396Z,101285.45
2023-02-03T00:10:24.752Z,101284.03
2023-02-03T00:12:53.726Z,101284.05
2023-02-03T00:15:23.209Z,101289.29
2023-02-03T00:17:51.283Z,101287.55
2023-02-03T00:20:19.753Z,101282.11
2023-02-03T00:22:47.912Z,101281.52
2023-02-03T00:25:16.031Z,101276.75
2023-02-03T00:27:44.877Z,101269.70
2023-02-03T00:30:13.331Z,101267.07
2023-02-03T00:32:41.391Z,101267.55
2023-02-03T00:35:09.427Z,101265.32
2023-02-03T00:37:38.143Z,101256.04
2023-02-03T00:40:07.059Z,101258.58
2023-02-03T00:42:35.898Z,101255.81
2023-02-03T00:45:04.388Z,101256.20
2023-02-03T00:47:32.411Z,101252.83
2023-02-03T00:50:00.422Z,101241.51
2023-02-03T00:52:28.416Z,101232.48
2023-02-03T00:54:56.913Z,101224.05
2023-02-03T00:57:25.103Z,101217.68
2023-02-03T00:59:54.260Z,101209.77
2023-02-03T01:02:22.669Z,101203.54
2023-02-03T01:04:50.748Z,101199.62
2023-02-03T01:07:19.169Z,101195.27
2023-02-03T01:09:47.134Z,101196.71
2023-02-03T01:12:15.130Z,101188.48
2023-02-03T01:14:43.235Z,101173.59
2023-02-03T01:17:11.322Z,101163.36
2023-02-03T01:19:39.316Z,101154.80
2023-02-03T01:22:07.342Z,101140.89
2023-02-03T01:24:35.395Z,101137.02
2023-02-03T01:27:03.476Z,101130.27
2023-02-03T01:29:31.693Z,101126.86
2023-02-03T01:31:59.875Z,101127.70
2023-02-03T01:34:29.071Z,101119.40
2023-02-03T01:36:57.179Z,101110.23
2023-02-03T01:39:26.385Z,101107.48
2023-02-03T01:41:56.475Z,101108.26
2023-02-03T01:44:49.399Z,101111.45
2023-02-03T01:47:38.893Z,101117.79
2023-02-03T01:50:11.502Z,101122.81
2023-02-03T01:52:44.210Z,101132.81
2023-02-03T01:55:20.835Z,101142.39
2023-02-03T01:58:08.840Z,101135.13
2023-02-03T02:00:36.968Z,101126.55
2023-02-03T02:03:07.702Z,101121.33
2023-02-03T02:05:46.129Z,101122.13
2023-02-03T02:08:18.062Z,101111.33
2023-02-03T02:10:46.348Z,101108.09
2023-02-03T02:13:16.613Z,101106.80
2023-02-03T02:16:04.174Z,101099.95
2023-02-03T02:18:56.560Z,101087.90
2023-02-03T02:21:55.265Z,101073.55
2023-02-03T02:24:44.295Z,101069.13
2023-02-03T02:28:13.892Z,101061.33
2023-02-03T02:31:04.565Z,101051.79
2023-02-03T02:34:13.591Z,101041.70
2023-02-03T02:37:53.047Z,101032.61
2023-02-03T02:40:52.355Z,101016.61
2023-02-03T02:44:01.082Z,101007.08
2023-02-03T02:46:42.854Z,101005.79
2023-02-03T02:49:27.056Z,101009.05
2023-02-03T02:51:59.081Z,101010.55
2023-02-03T02:54:30.678Z,101010.11
2023-02-03T02:57:05.005Z,101008.67
2023-02-03T02:59:33.268Z,101004.20
2023-02-03T03:02:02.148Z,101006.53
2023-02-03T03:04:33.881Z,101001.89
2023-02-03T03:07:10.450Z,100998.91
2023-02-03T03:09:44.172Z,100993.12
2023-02-03T03:12:40.173Z,100992.08
2023-02-03T03:15:20.496Z,100981.58
2023-02-03T03:17:59.289Z,100967.43
2023-02-03T03:20:28.763Z,100958.83
2023-02-03T03:23:07.638Z,100956.79
2023-02-03T03:25:44.155Z,100949.00
2023-02-03T03:28:24.025Z,100950.98
2023-02-03T03:30:52.757Z,100945.27
2023-02-03T03:33:22.487Z,100939.53
2023-02-03T03:36:01.980Z,100934.91
2023-02-03T03:38:42.355Z,100929.05
2023-02-03T03:41:28.649Z,100925.08
2023-02-03T03:44:02.262Z,100925.30
2023-02-03T03:46:40.209Z,100924.46
2023-02-03T03:49:10.728Z,100919.52
2023-02-03T03:51:47.050Z,100915.81
2023-02-03T03:54:20.521Z,100903.36
2023-02-03T03:56:58.245Z,100895.69
2023-02-03T03:59:31.718Z,100890.52
2023-02-03T04:02:04.918Z,100885.71
2023-02-03T04:04:36.918Z,100886.55
2023-02-03T04:07:05.132Z,100886.23
2023-02-03T04:09:36.661Z,100880.06
2023-02-03T04:12:06.499Z,100873.32
2023-02-03T04:14:38.904Z,100867.69
2023-02-03T04:17:07.134Z,100863.50
2023-02-03T04:19:35.207Z,100856.94
2023-02-03T04:22:03.278Z,100855.70
2023-02-03T04:24:31.357Z,100849.65
2023-02-03T04:26:59.336Z,100853.52
2023-02-03T04:29:27.236Z,100844.51
2023-02-03T04:31:55.294Z,100838.71
2023-02-03T04:34:23.321Z,100828.54
2023-02-03T04:36:51.329Z,100825.30
2023-02-03T04:39:19.351Z,100818.48
2023-02-03T04:41:47.327Z,100814.59
2023-02-03T04:44:15.246Z,100805.91
2023-02-03T04:46:43.200Z,100800.66
2023-02-03T04:49:11.710Z,100792.27
2023-02-03T04:51:39.799Z,100786.70
2023-02-03T04:54:08.009Z,100783.56
2023-02-03T04:56:36.938Z,100772.08
2023-02-03T04:59:04.923Z,100768.34
2023-02-03T05:01:32.965Z,100764.48
2023-02-03T05:04:00.982Z,100760.31
2023-02-03T05:06:30.008Z,100755.01
2023-02-03T05:08:58.286Z,100748.95
2023-02-03T05:11:26.767Z,100746.60
2023-02-03T05:13:55.753Z,100753.09
2023-02-03T05:16:23.973Z,100751.14
2023-02-03T05:18:51.954Z,100744.06
2023-02-03T05:21:19.995Z,100737.61
2023-02-03T05:23:48.037Z,100729.02
2023-02-03T05:26:16.234Z,100718.05
2023-02-03T05:28:44.270Z,100711.36
2023-02-03T05:31:12.337Z,100705.73
2023-02-03T05:33:40.356Z,100703.17
2023-02-03T05:36:09.394Z,100699.52
2023-02-03T05:38:37.487Z,100697.72
2023-02-03T05:41:24.514Z,100687.10
2023-02-03T05:43:52.800Z,100683.23
2023-02-03T05:46:20.803Z,100672.00
2023-02-03T05:48:48.826Z,100667.61
2023-02-03T05:51:16.815Z,100662.60
2023-02-03T05:53:44.813Z,100661.80
2023-02-03T05:56:12.832Z,100657.21
2023-02-03T05:58:40.808Z,100652.23
2023-02-03T06:01:08.828Z,100651.09
2023-02-03T06:03:36.920Z,100644.42
2023-02-03T06:06:05.043Z,100640.56
2023-02-03T06:08:33.060Z,100638.00
2023-02-03T06:11:01.147Z,100637.27
2023-02-03T06:13:29.255Z,100632.51
2023-02-03T06:15:57.353Z,100633.26
2023-02-03T06:18:25.457Z,100631.70
2023-02-03T06:20:53.542Z,100625.48
2023-02-03T06:23:21.524Z,100617.52
2023-02-03T06:25:51.209Z,100612.95
2023-02-03T06:28:19.321Z,100604.55
2023-02-03T06:30:51.963Z,100598.32
2023-02-03T06:33:20.435Z,100587.27
2023-02-03T06:35:48.381Z,100578.34
2023-02-03T06:38:16.469Z,100565.85
2023-02-03T06:40:48.041Z,100561.63
2023-02-03T06:43:16.101Z,100557.33
2023-02-03T06:45:47.435Z,100543.50
2023-02-03T06:48:15.593Z,100532.30
2023-02-03T06:50:46.918Z,100528.04
2023-02-03T06:53:16.245Z,100517.25
2023-02-03T06:55:44.212Z,100511.73
2023-02-03T06:58:12.219Z,100506.09
2023-02-03T07:00:40.346Z,100498.23
2023-02-03T07:03:08.429Z,100488.77
2023-02-03T07:05:36.861Z,100481.50
2023-02-03T07:08:05.155Z,100469.65
2023-02-03T07:10:33.138Z,100459.71
2023-02-03T07:13:06.757Z,100457.39
2023-02-03T07:15:36.273Z,100447.34
2023-02-03T07:18:04.501Z,100441.45
2023-02-03T07:20:32.986Z,100433.06
2023-02-03T07:23:01.078Z,100418.75
2023-02-03T07:25:29.174Z,100403.00
2023-02-03T07:27:57.343Z,100390.59
2023-02-03T07:30:25.419Z,100382.81
2023-02-03T07:32:53.845Z,100377.55
2023-02-03T07:35:22.114Z,100382.52
2023-02-03T07:37:50.162Z,100372.75
2023-02-03T07:40:18.737Z,100371.16
2023-02-03T07:42:49.881Z,100364.58
2023-02-03T07:45:19.203Z,100355.14
2023-02-03T07:47:47.243Z,100355.04
2023-02-03T07:50:15.471Z,100348.29
2023-02-03T07:52:43.820Z,100336.23
2023-02-03T07:55:12.038Z,100327.52
2023-02-03T07:57:43.364Z,100318.15
2023-02-03T08:00:15.595Z,100312.15
2023-02-03T08:02:44.091Z,100298.11
2023-02-03T08:05:13.025Z,100292.82
2023-02-03T08:07:41.813Z,100282.67
2023-02-03T08:10:12.989Z,100274.05
2023-02-03T08:12:45.111Z,100275.06
2023-02-03T08:15:14.523Z,100263.77
2023-02-03T08:17:44.417Z,100260.15
2023-02-03T08:20:12.857Z,100256.48
2023-02-03T08:22:40.901Z,100249.70
2023-02-03T08:25:09.859Z,100246.09
2023-02-03T08:27:38.833Z,100235.86
2023-02-03T08:30:11.584Z,100228.05
2023-02-03T08:32:39.569Z,100219.34
2023-02-03T08:35:08.313Z,100211.24
2023-02-03T08:37:36.543Z,100201.09
2023-02-03T08:40:06.398Z,100184.48
2023-02-03T08:42:34.448Z,100179.03
2023-02-03T08:45:05.092Z,100177.27
2023-02-03T08:47:33.389Z,100167.38
2023-02-03T08:50:01.358Z,100161.56
2023-02-03T08:52:29.421Z,100159.39
2023-02-03T08:54:57.431Z,100141.98
2023-02-03T08:57:25.431Z,100137.33
2023-02-03T08:59:54.577Z,100132.73
2023-02-03T09:02:22.607Z,100126.32
2023-02-03T09:04:51.971Z,100116.25
2023-02-03T09:07:20.223Z,100113.49
2023-02-03T09:09:48.284Z,100107.31
2023-02-03T09:12:16.754Z,100105.80
2023-02-03T09:14:44.758Z,100098.94
2023-02-03T09:17:12.743Z,100088.51
2023-02-03T09:19:40.817Z,100074.13
2023-02-03T09:22:08.974Z,100071.37
2023-02-03T09:24:37.247Z,100058.40
2023-02-03T09:27:05.312Z,100037.77
2023-02-03T09:29:33.505Z,100031.14
2023-02-03T09:32:07.007Z,100026.19
2023-02-03T09:34:35.174Z,100004.33
2023-02-03T09:37:04.387Z,99991.16
2023-02-03T09:39:32.807Z,99976.23
2023-02-03T09:42:28.710Z,99974.06
2023-02-03T09:45:24.498Z,99974.72
2023-02-03T09:47:55.461Z,99966.14
2023-02-03T09:50:31.751Z,99957.08
2023-02-03T09:53:06.498Z,99953.27
2023-02-03T09:55:43.176Z,99937.19
2023-02-03T09:58:21.324Z,99918.63
2023-02-03T10:01:07.573Z,99904.96
2023-02-03T10:03:48.382Z,99900.17
2023-02-03T10:06:46.841Z,99888.74
2023-02-03T10:09:57.610Z,99885.46
2023-02-03T10:12:45.502Z,99871.16
2023-02-03T10:15:43.829Z,99846.84
2023-02-03T10:18:23.331Z,99832.71
2023-02-03T10:21:00.248Z,99813.95
2023-02-03T10:23:36.765Z,99801.83
2023-02-03T10:26:15.823Z,99792.61
2023-02-03T10:29:18.488Z,99781.95
2023-02-03T10:31:47.730Z,99768.59
2023-02-03T10:34:19.651Z,99761.02
2023-02-03T10:36:56.216Z,99750.02
2023-02-03T10:39:39.805Z,99732.88
2023-02-03T10:42:10.798Z,99719.09
2023-02-03T10:44:49.065Z,99725.83
2023-02-03T10:47:42.861Z,99720.98
2023-02-03T10:50:25.729Z,99704.74
2023-02-03T10:53:13.893Z,99692.80
2023-02-03T10:55:41.899Z,99677.45
2023-02-03T10:58:34.174Z,99671.52
2023-02-03T11:01:12.145Z,99664.45
2023-02-03T11:04:04.003Z,99655.39
2023-02-03T11:06:34.298Z,99639.80
2023-02-03T11:09:02.933Z,99636.73
2023-02-03T11:11:34.257Z,99623.29
2023-02-03T11:14:02.200Z,99615.72
2023-02-03T11:16:38.426Z,99611.02
2023-02-03T11:19:20.847Z,99596.77
2023-02-03T11:21:52.477Z,99593.27
2023-02-03T11:24:39.582Z,99589.48
2023-02-03T11:27:15.568Z,99579.52
2023-02-03T11:29:50.391Z,99569.11
2023-02-03T11:32:24.216Z,99554.20
2023-02-03T11:35:02.235Z,99546.88
2023-02-03T11:37:41.959Z,99538.67
2023-02-03T11:40:11.455Z,99535.61
2023-02-03T11:42:42.925Z,99531.11
2023-02-03T11:45:29.292Z,99530.57
2023-02-03T11:48:01.103Z,99527.91
2023-02-03T11:50:40.924Z,99519.64
2023-02-03T11:53:59.126Z,99514.46
2023-02-03T11:57:13.947Z,99502.86
2023-02-03T11:59:52.970Z,99504.13
2023-02-03T12:03:01.030Z,99499.58
2023-02-03T12:05:54.537Z,99494.52
2023-02-03T12:08:49.405Z,99491.69
2023-02-03T12:11:38.871Z,99484.66
2023-02-03T12:14:36.593Z,99486.53
2023-02-03T12:17:37.772Z,99486.58
2023-02-03T12:20:29.247Z,99482.39
2023-02-03T12:23:19.901Z,99478.02
2023-02-03T12:26:32.486Z,99479.11
2023-02-03T12:29:24.764Z,99473.50
2023-02-03T12:32:01.680Z,99473.90
2023-02-03T12:35:20.603Z,99475.38
2023-02-03T12:37:58.928Z,99461.77
2023-02-03T12:40:42.970Z,99456.73
2023-02-03T12:43:17.081Z,99449.77
2023-02-03T12:46:00.972Z,99453.46
2023-02-03T12:48:38.936Z,99457.34
2023-02-03T12:51:15.095Z,99463.60
2023-02-03T12:53:51.907Z,99468.39
2023-02-03T12:56:29.572Z,99477.88
2023-02-03T12:59:06.696Z,99479.91
2023-02-03T13:02:01.505Z,99481.50
2023-02-03T13:04:41.629Z,99481.89
2023-02-03T13:07:27.509Z,99480.63
2023-02-03T13:10:24.883Z,99481.53
2023-02-03T13:13:00.007Z,99493.05
2023-02-03T13:15:37.360Z,99489.70
2023-02-03T13:18:29.519Z,99499.08
2023-02-03T13:20:57.912Z,99504.84
2023-02-03T13:23:26.818Z,99502.14
2023-02-03T13:26:24.643Z,99504.58
2023-02-03T13:29:08.183Z,99513.23
2023-02-03T13:32:10.995Z,99510.81
2023-02-03T13:35:21.603Z,99503.33
2023-02-03T13:38:05.515Z,99512.42
2023-02-03T13:41:18.236Z,99538.27
2023-02-03T13:43:52.472Z,99526.36
2023-02-03T13:46:31.467Z,99532.90
2023-02-03T13:49:03.137Z,99548.40
2023-02-03T13:51:43.345Z,99553.79
2023-02-03T13:54:27.731Z,99559.44
2023-02-03T13:57:05.998Z,99562.33
2023-02-03T13:59:37.050Z,99557.16
2023-02-03T14:02:23.507Z,99550.11
2023-02-03T14:04:58.041Z,99540.80
2023-02-03T14:07:38.786Z,99556.80
2023-02-03T14:10:15.942Z,99566.00
2023-02-03T14:12:50.035Z,99565.73
2023-02-03T14:15:33.537Z,99566.80
2023-02-03T14:18:35.179Z,99568.33
2023-02-03T14:21:16.198Z,99565.62
2023-02-03T14:23:51.142Z,99568.02
2023-02-03T14:26:42.379Z,99570.95
2023-02-03T14:29:27.870Z,99575.89
2023-02-03T14:32:11.164Z,99577.98
2023-02-03T14:34:45.456Z,99574.19
2023-02-03T14:37:28.788Z,99567.16
2023-02-03T14:40:14.157Z,99570.86
2023-02-03T14:43:10.514Z,99571.24
2023-02-03T14:46:01.856Z,99568.98
2023-02-03T14:48:52.151Z,99572.75
2023-02-03T14:51:56.476Z,99566.64
2023-02-03T14:54:53.968Z,99574.08
2023-02-03T14:57:51.788Z,99579.70
2023-02-03T15:00:19.817Z,99584.70
2023-02-03T15:03:06.729Z,99589.12
2023-02-03T15:05:44.174Z,99598.00
2023-02-03T15:08:46.458Z,99598.50
2023-02-03T15:11:33.788Z,99606.25
2023-02-03T15:14:27.847Z,99610.67
2023-02-03T15:17:01.669Z,99609.35
2023-02-03T15:19:36.036Z,99617.38
2023-02-03T15:22:29.331Z,99614.98
2023-02-03T15:25:04.042Z,99619.59
2023-02-03T15:27:32.925Z,99626.44
2023-02-03T15:30:23.895Z,99622.52
2023-02-03T15:33:16.883Z,99618.48
2023-02-03T15:35:48.112Z,99625.19
2023-02-03T15:38:33.262Z,99632.30
2023-02-03T15:41:02.439Z,99645.55
2023-02-03T15:43:41.815Z,99652.94
2023-02-03T15:46:36.028Z,99652.16
2023-02-03T15:49:19.256Z,99657.80
2023-02-03T15:51:57.952Z,99654.98
2023-02-03T15:54:41.491Z,99659.09
2023-02-03T15:57:20.381Z,99664.17
2023-02-03T16:00:31.513Z,99657.29
2023-02-03T16:03:00.933Z,99660.20
2023-02-03T16:05:34.327Z,99661.61
2023-02-03T16:08:46.132Z,99664.73
2023-02-03T16:11:41.671Z,99670.70
2023-02-03T16:14:32.624Z,99669.29
2023-02-03T16:17:05.422Z,99667.45
2023-02-03T16:19:38.171Z,99666.16
2023-02-03T16:22:32.213Z,99662.05
2023-02-03T16:25:21.029Z,99666.81
2023-02-03T16:28:23.779Z,99670.36
2023-02-03T16:31:12.888Z,99675.17
2023-02-03T16:34:08.127Z,99676.23
2023-02-03T16:37:03.298Z,99682.88
2023-02-03T16:39:50.566Z,99687.98
2023-02-03T16:42:40.078Z,99685.94
2023-02-03T16:45:37.299Z,99692.40
2023-02-03T16:48:24.254Z,99697.25
2023-02-03T16:50:59.739Z,99699.88
2023-02-03T16:53:31.614Z,99703.80
2023-02-03T16:56:04.421Z,99704.98
2023-02-03T16:58:32.697Z,99704.55
2023-02-03T17:01:04.510Z,99704.38
2023-02-03T17:03:36.011Z,99703.40
2023-02-03T17:06:13.016Z,99705.65
2023-02-03T17:08:42.241Z,99706.13
2023-02-03T17:11:20.673Z,99705.20
2023-02-03T17:13:50.718Z,99707.23
2023-02-03T17:16:26.136Z,99705.17
2023-02-03T17:18:54.933Z,99708.41
2023-02-03T17:21:27.084Z,99709.09
2023-02-03T17:23:55.343Z,99712.14
2023-02-03T17:26:23.316Z,99716.55
2023-02-03T17:28:51.421Z,99718.86
2023-02-03T17:31:20.912Z,99720.17
2023-02-03T17:33:52.421Z,99728.40
2023-02-03T17:36:21.954Z,99729.05
2023-02-03T17:55:33.199Z,99752.63
2023-02-03T17:58:01.709Z,99751.06
2023-02-03T18:00:30.023Z,99746.13
2023-02-03T18:02:58.713Z,99752.90
2023-02-03T18:05:28.832Z,99757.84
2023-02-03T18:07:56.924Z,99752.05
2023-02-03T18:10:25.130Z,99757.05
2023-02-03T18:12:53.299Z,99753.16
2023-02-03T18:15:21.325Z,99754.58
2023-02-03T18:17:49.365Z,99756.45
2023-02-03T18:20:17.604Z,99761.97
2023-02-03T18:22:45.607Z,99767.52
2023-02-03T18:25:17.198Z,99764.08
2023-02-03T18:27:45.257Z,99770.92
2023-02-03T18:30:15.121Z,99766.20
2023-02-03T18:32:43.958Z,99774.73
2023-02-03T18:35:16.682Z,99769.20
2023-02-03T18:37:45.002Z,99766.98
2023-02-03T18:40:13.224Z,99769.77
2023-02-03T18:42:41.174Z,99771.11
2023-02-03T18:45:11.596Z,99765.91
2023-02-03T18:47:40.182Z,99769.89
2023-02-03T18:50:08.642Z,99775.94
2023-02-03T18:52:37.676Z,99773.59
2023-02-03T18:55:06.337Z,99774.89
2023-02-03T18:57:34.521Z,99770.89
2023-02-03T19:00:04.365Z,99771.19
2023-02-03T19:02:33.873Z,99768.73
2023-02-03T19:05:02.133Z,99771.25
2023-02-03T19:07:30.322Z,99769.59
2023-02-03T19:09:58.269Z,99772.38
2023-02-03T19:12:27.492Z,99776.16
2023-02-03T19:14:55.698Z,99769.39
2023-02-03T19:17:23.679Z,99768.98
2023-02-03T19:19:51.784Z,99769.77
2023-02-03T19:22:19.834Z,99776.69
2023-02-03T19:24:47.956Z,99776.27
2023-02-03T19:27:15.908Z,99789.20
2023-02-03T19:29:43.871Z,99783.84
2023-02-03T19:32:12.939Z,99791.60
2023-02-03T19:34:41.067Z,99802.67
2023-02-03T19:37:09.207Z,99813.77
2023-02-03T19:39:37.293Z,99812.25
2023-02-03T19:42:05.391Z,99813.69
2023-02-03T19:44:33.530Z,99807.65
2023-02-03T19:47:03.284Z,99806.46
2023-02-03T19:49:31.638Z,99816.95
2023-02-03T19:52:00.071Z,99818.21
2023-02-03T19:54:28.207Z,99834.02
2023-02-03T19:56:56.216Z,99829.88
2023-02-03T19:59:24.277Z,99831.58
2023-02-03T20:01:52.336Z,99824.61
2023-02-03T20:04:20.596Z,99822.35
2023-02-03T20:06:48.580Z,99817.02
2023-02-03T20:09:16.694Z,99823.48
2023-02-03T20:11:44.691Z,99822.36
2023-02-03T20:14:13.781Z,99824.41
2023-02-03T20:16:42.794Z,99821.80
2023-02-03T20:19:11.394Z,99821.86
2023-02-03T20:21:39.467Z,99818.09
2023-02-03T20:24:07.502Z,99825.95
2023-02-03T20:26:35.519Z,99828.13
2023-02-03T20:29:03.674Z,99816.05
2023-02-03T20:31:31.839Z,99816.68
2023-02-03T20:33:59.908Z,99817.58
2023-02-03T20:36:28.046Z,99816.38
2023-02-03T20:38:56.478Z,99812.07
2023-02-03T20:41:24.498Z,99804.57
2023-02-03T20:43:52.539Z,99807.10
2023-02-03T20:46:20.692Z,99811.17
2023-02-03T20:48:48.812Z,99811.58
2023-02-03T20:51:20.864Z,99817.42
2023-02-03T20:53:50.072Z,99820.04
2023-02-03T20:56:21.833Z,99824.72
2023-02-03T20:58:49.845Z,99831.85
2023-02-03T21:01:22.498Z,99838.33
2023-02-03T21:04:10.235Z,99844.75
2023-02-03T21:06:39.981Z,99850.45
2023-02-03T21:09:20.880Z,99855.59
2023-02-03T21:11:49.339Z,99851.96
2023-02-03T21:14:29.593Z,99858.46
2023-02-03T21:16:57.819Z,99844.27
2023-02-03T21:19:30.136Z,99852.63
2023-02-03T21:21:59.059Z,99860.99
2023-02-03T21:24:35.459Z,99860.73
2023-02-03T21:27:24.721Z,99866.80
2023-02-03T21:29:56.422Z,99870.55
2023-02-03T21:32:35.466Z,99867.55
2023-02-03T21:35:31.794Z,99865.43
2023-02-03T21:38:02.644Z,99873.89
2023-02-03T21:40:34.973Z,99870.52
2023-02-03T21:43:03.385Z,99867.67
2023-02-03T21:45:38.395Z,99866.11
2023-02-03T21:48:40.398Z,99876.23
2023-02-03T21:51:23.450Z,99874.27
2023-02-03T21:54:03.854Z,99880.90
2023-02-03T21:56:41.729Z,99883.86
2023-02-03T21:59:21.094Z,99893.40
2023-02-03T22:01:49.776Z,99891.23
2023-02-03T22:04:17.783Z,99893.57
2023-02-03T22:06:50.467Z,99888.43
2023-02-03T22:09:22.358Z,99892.00
2023-02-03T22:11:51.707Z,99908.79
2023-02-03T22:14:23.655Z,99910.98
2023-02-03T22:16:51.623Z,99907.61
2023-02-03T22:19:19.640Z,99911.16
2023-02-03T22:21:49.700Z,99909.03
2023-02-03T22:24:17.772Z,99914.17
2023-02-03T22:26:45.714Z,99918.27
2023-02-03T22:29:13.737Z,99924.84
2023-02-03T22:31:42.798Z,99927.08
2023-02-03T22:34:10.976Z,99934.23
2023-02-03T22:36:39.222Z,99936.94
2023-02-03T22:39:07.317Z,99940.70
2023-02-03T22:41:35.265Z,99940.25
2023-02-03T22:44:03.339Z,99943.04
2023-02-03T22:46:31.302Z,99949.83
2023-02-03T22:48:59.391Z,99953.91
2023-02-03T22:51:27.394Z,99971.70
2023-02-03T22:53:55.366Z,99982.13
2023-02-03T22:56:23.758Z,99990.26
2023-02-03T22:58:51.832Z,99995.58
2023-02-03T23:01:20.006Z,99996.81
2023-02-03T23:03:47.970Z,99998.72
2023-02-03T23:06:16.037Z,100001.90
2023-02-03T23:08:44.027Z,100003.86
2023-02-03T23:11:12.036Z,100006.89
2023-02-03T23:13:39.972Z,100022.28
2023-02-03T23:16:07.946Z,100032.80
2023-02-03T23:18:35.939Z,100045.73
2023-02-03T23:21:03.996Z,100061.44
2023-02-03T23:23:32.097Z,100095.63
2023-02-03T23:26:00.108Z,100120.09
2023-02-03T23:28:28.138Z,100132.25
2023-02-03T23:30:56.414Z,100148.32
2023-02-03T23:33:24.599Z,100166.85
2023-02-03T23:35:55.256Z,100193.96
2023-02-03T23:38:23.286Z,100211.48
2023-02-03T23:40:51.270Z,100223.02
2023-02-03T23:43:19.214Z,100236.68
2023-02-03T23:45:47.526Z,100253.38
2023-02-03T23:48:17.676Z,100267.19
2023-02-03T23:50:45.671Z,100291.28
2023-02-03T23:53:13.588Z,100298.98
2023-02-03T23:55:41.515Z,100317.33
2023-02-03T23:58:09.425Z,100338.08
